createdAt,value
2018-03-28T00:03:01.511Z,93.50
2018-03-28T00:08:06.103Z,93.20
2018-03-28T00:13:09.187Z,93.30
2018-03-28T00:18:12.659Z,93.30
2018-03-28T00:23:15.743Z,93.40
2018-03-28T00:28:19.586Z,93.40
2018-03-28T00:38:27.875Z,93.70
2018-03-28T00:43:32.454Z,93.50
2018-03-28T00:48:35.545Z,93.50
2018-03-28T00:58:44.584Z,93.90
2018-03-28T01:08:52.491Z,93.80
2018-03-28T01:13:57.090Z,93.50
2018-03-28T01:19:00.944Z,93.80
2018-03-28T01:24:04.783Z,93.80
2018-03-28T01:29:08.272Z,94.00
2018-03-28T01:34:11.351Z,93.90
2018-03-28T01:39:15.196Z,93.90
2018-03-28T01:49:23.083Z,93.90
2018-03-28T01:54:26.171Z,93.90
2018-03-28T02:04:35.186Z,93.90
2018-03-28T02:19:48.264Z,94.00
2018-03-28T02:24:52.480Z,94.30
2018-03-28T02:29:57.056Z,94.00
2018-03-28T02:40:05.255Z,94.00
2018-03-28T02:50:13.537Z,94.10
2018-03-28T02:55:17.389Z,94.30
2018-03-28T03:00:21.232Z,94.00
2018-03-28T03:10:30.274Z,94.00
2018-03-28T03:20:38.591Z,94.00
2018-03-28T03:30:47.261Z,94.10
2018-03-28T03:40:56.307Z,94.10
2018-03-28T03:46:00.541Z,94.80
2018-03-28T03:51:03.636Z,94.30
2018-03-28T03:56:07.487Z,94.20
2018-03-28T04:01:11.349Z,94.30
2018-03-28T04:06:14.448Z,94.30
2018-03-28T04:11:19.048Z,94.40
2018-03-28T04:21:27.380Z,94.50
2018-03-28T04:31:35.680Z,94.70
2018-03-28T04:36:38.894Z,94.50
2018-03-28T04:41:41.872Z,94.50
2018-03-28T04:46:44.977Z,94.60
2018-03-28T04:56:53.285Z,94.60
2018-03-28T05:12:05.283Z,94.80
2018-03-28T05:17:08.776Z,94.80
2018-03-28T05:27:17.099Z,95.00
2018-03-28T05:32:20.944Z,95.00
2018-03-28T05:37:25.911Z,95.00
2018-03-28T05:47:34.593Z,95.10
2018-03-28T05:52:38.077Z,95.00
2018-03-28T05:57:41.935Z,94.90
2018-03-28T06:07:50.232Z,94.90
2018-03-28T06:17:59.251Z,95.00
2018-03-28T06:23:02.736Z,94.80
2018-03-28T06:28:07.349Z,94.60
2018-03-28T06:33:11.199Z,94.80
2018-03-28T06:38:14.283Z,94.80
2018-03-28T06:48:21.825Z,94.60
2018-03-28T06:53:24.910Z,94.60
2018-03-28T06:58:28.760Z,94.40
2018-03-28T07:03:32.248Z,94.40
2018-03-28T07:08:36.865Z,94.20
2018-03-28T07:18:44.812Z,94.30
2018-03-28T07:23:49.051Z,94.20
2018-03-28T07:28:53.669Z,94.20
2018-03-28T07:33:57.139Z,93.90
2018-03-28T07:39:01.744Z,93.90
2018-03-28T07:44:05.583Z,93.90
2018-03-28T07:49:09.064Z,94.00
2018-03-28T07:54:12.152Z,94.00
2018-03-28T07:59:15.640Z,93.90
2018-03-28T08:04:18.728Z,94.00
2018-03-28T08:09:23.774Z,93.90
2018-03-28T08:14:27.269Z,93.90
2018-03-28T08:19:30.370Z,93.20
2018-03-28T08:24:33.466Z,92.90
2018-03-28T08:29:37.320Z,92.50
2018-03-28T08:39:46.339Z,92.00
2018-03-28T08:44:49.830Z,91.40
2018-03-28T08:49:54.070Z,90.80
2018-03-28T08:54:57.566Z,89.90
2018-03-28T09:00:01.023Z,87.40
2018-03-28T09:10:10.076Z,84.30
2018-03-28T09:15:13.572Z,84.00
2018-03-28T09:20:16.672Z,84.90
2018-03-28T09:25:20.916Z,84.80
2018-03-28T09:30:25.147Z,81.90
2018-03-28T09:35:29.015Z,82.70
2018-03-28T09:45:37.338Z,79.70
2018-03-28T09:50:41.976Z,79.60
2018-03-28T09:55:45.459Z,74.50
2018-03-28T10:00:48.559Z,75.20
2018-03-28T10:05:51.684Z,77.00
2018-03-28T10:10:55.904Z,74.40
2018-03-28T10:16:00.503Z,75.80
2018-03-28T10:21:03.593Z,76.70
2018-03-28T10:26:08.180Z,75.80
2018-03-28T10:31:12.432Z,73.10
2018-03-28T10:36:15.510Z,73.50
2018-03-28T10:46:24.210Z,73.50
2018-03-28T10:56:32.492Z,71.80
2018-03-28T11:01:35.588Z,70.60
2018-03-28T11:06:38.708Z,69.80
2018-03-28T11:11:41.799Z,70.90
2018-03-28T11:16:44.897Z,70.90
2018-03-28T11:21:49.124Z,70.50
2018-03-28T11:26:52.203Z,71.60
2018-03-28T11:31:55.300Z,70.30
2018-03-28T11:36:59.595Z,70.60
2018-03-28T11:52:11.547Z,74.70
2018-03-28T11:57:15.790Z,73.50
2018-03-28T12:02:20.014Z,72.40
2018-03-28T12:12:29.814Z,74.50
2018-03-28T12:17:33.309Z,71.40
2018-03-28T12:22:36.400Z,70.60
2018-03-28T12:27:40.235Z,72.70
2018-03-28T12:32:44.459Z,73.90
2018-03-28T12:37:47.570Z,76.10
2018-03-28T12:42:50.702Z,79.80
2018-03-28T12:58:03.798Z,83.40
2018-03-28T13:13:17.325Z,86.40
2018-03-28T13:18:21.920Z,88.50
2018-03-28T13:28:29.843Z,89.70
2018-03-28T13:33:32.944Z,89.70
2018-03-28T13:38:37.159Z,90.30
2018-03-28T13:43:41.008Z,90.30
2018-03-28T13:53:48.964Z,90.60
2018-03-28T13:58:52.860Z,91.00
2018-03-28T14:03:56.355Z,91.30
2018-03-28T14:09:00.225Z,91.20
2018-03-28T14:14:03.710Z,91.50
2018-03-28T14:19:07.952Z,91.30
2018-03-28T14:24:11.020Z,90.60
2018-03-28T14:29:15.620Z,90.20
2018-03-28T14:34:19.153Z,90.20
2018-03-28T14:39:23.000Z,90.70
2018-03-28T14:44:27.244Z,90.60
2018-03-28T14:49:31.099Z,91.10
2018-03-28T14:54:34.496Z,90.70
2018-03-28T14:59:38.718Z,90.70
2018-03-28T15:09:47.034Z,90.70
2018-03-28T15:14:50.110Z,90.70
2018-03-28T15:24:59.148Z,90.40
2018-03-28T15:35:07.090Z,90.00
2018-03-28T15:45:16.135Z,89.40
2018-03-28T15:55:25.184Z,88.70
2018-03-28T16:00:28.276Z,88.90
2018-03-28T16:05:31.387Z,89.70
2018-03-28T16:15:40.062Z,88.30
2018-03-28T16:20:43.560Z,88.70
2018-03-28T16:30:53.404Z,88.30
2018-03-28T16:35:58.027Z,88.30
2018-03-28T16:41:02.654Z,88.40
2018-03-28T16:51:12.605Z,88.60
2018-03-28T16:56:16.476Z,89.30
2018-03-28T17:01:21.085Z,89.80
2018-03-28T17:06:25.813Z,89.90
2018-03-28T17:11:29.665Z,90.20
2018-03-28T17:16:34.467Z,90.20
2018-03-28T17:21:38.717Z,90.10
2018-03-28T17:26:42.217Z,90.10
2018-03-28T17:31:46.828Z,90.10
2018-03-28T17:41:55.138Z,90.30
2018-03-28T17:52:02.683Z,89.90
2018-03-28T17:57:06.545Z,89.70
2018-03-28T18:02:10.762Z,89.80
2018-03-28T18:12:19.921Z,90.60
2018-03-28T18:17:23.049Z,91.30
2018-03-28T18:22:27.940Z,91.20
2018-03-28T18:27:31.808Z,91.60
2018-03-28T18:32:38.121Z,87.10
2018-03-28T18:37:41.276Z,83.80
2018-03-28T18:42:44.442Z,84.90
2018-03-28T18:47:47.557Z,86.40
2018-03-28T18:53:10.814Z,83.30
2018-03-28T18:58:14.356Z,83.40
2018-03-28T19:03:17.483Z,83.60
2018-03-28T19:08:20.590Z,82.90
2018-03-28T19:13:24.472Z,81.30
2018-03-28T19:18:27.939Z,81.40
2018-03-28T19:28:35.415Z,82.70
2018-03-28T19:33:38.885Z,83.30
2018-03-28T19:38:42.798Z,83.40
2018-03-28T19:43:46.346Z,84.10
2018-03-28T19:48:49.856Z,84.10
2018-03-28T19:53:53.697Z,83.50
2018-03-28T19:58:57.976Z,83.20
2018-03-28T20:04:01.053Z,83.40
2018-03-28T20:09:06.408Z,84.10
2018-03-28T20:14:09.467Z,85.80
2018-03-28T20:19:12.527Z,85.70
2018-03-28T20:24:15.592Z,86.60
2018-03-28T20:29:18.690Z,88.10
2018-03-28T20:34:21.773Z,88.20
2018-03-28T20:39:24.854Z,86.80
2018-03-28T20:44:27.944Z,86.90
2018-03-28T20:49:31.763Z,86.70
2018-03-28T20:54:36.105Z,86.00
2018-03-28T20:59:39.225Z,86.10
2018-03-28T21:04:42.301Z,85.50
2018-03-28T21:09:46.560Z,84.80
2018-03-28T21:14:49.604Z,83.30
2018-03-28T21:19:52.668Z,83.70
2018-03-28T21:25:03.464Z,82.60
2018-03-28T21:30:06.609Z,82.90
2018-03-28T21:35:09.684Z,82.00
2018-03-28T21:40:13.908Z,82.50
2018-03-28T21:45:16.999Z,83.00
2018-03-28T21:50:21.303Z,83.20
2018-03-28T21:55:24.776Z,85.60
2018-03-28T22:00:28.641Z,86.90
2018-03-28T22:05:31.704Z,86.60
2018-03-28T22:10:34.848Z,86.40
2018-03-28T22:15:37.916Z,87.50
2018-03-28T22:20:41.407Z,89.30
2018-03-28T22:25:45.244Z,89.40
2018-03-28T22:30:48.328Z,90.00
2018-03-28T22:35:51.392Z,90.40
2018-03-28T22:40:54.615Z,90.30
2018-03-28T22:45:57.703Z,90.10
2018-03-28T22:51:00.788Z,90.40
2018-03-28T22:56:03.864Z,90.60
2018-03-28T23:01:18.147Z,90.80
2018-03-28T23:06:21.973Z,91.00
2018-03-28T23:11:26.175Z,90.70
2018-03-28T23:16:29.245Z,90.60
2018-03-28T23:21:32.360Z,90.20
2018-03-28T23:26:36.570Z,90.50
2018-03-28T23:31:41.155Z,90.60
2018-03-28T23:36:44.244Z,90.40
2018-03-28T23:41:47.313Z,90.70
2018-03-28T23:46:51.553Z,90.70
2018-03-28T23:51:54.603Z,90.50
2018-03-28T23:56:57.691Z,90.40
